sensor_id;sensor_type;location;lat;lon;timestamp;temperature;humidity
20481;DHT22;10399;50.754;3.366;2022-11-15T00:01:16;12.20;99.90
20481;DHT22;10399;50.754;3.366;2022-11-15T00:03:43;12.20;99.90
20481;DHT22;10399;50.754;3.366;2022-11-15T00:06:10;12.20;99.90
20481;DHT22;10399;50.754;3.366;2022-11-15T00:08:37;12.30;99.90
20481;DHT22;10399;50.754;3.366;2022-11-15T00:11:04;12.20;99.90
20481;DHT22;10399;50.754;3.366;2022-11-15T00:13:31;12.30;99.90
20481;DHT22;10399;50.754;3.366;2022-11-15T00:16:00;12.20;99.90
20481;DHT22;10399;50.754;3.366;2022-11-15T00:18:28;12.20;99.90
20481;DHT22;10399;50.754;3.366;2022-11-15T00:21:04;12.20;99.90
20481;DHT22;10399;50.754;3.366;2022-11-15T00:23:33;12.10;99.90
20481;DHT22;10399;50.754;3.366;2022-11-15T00:26:00;12.10;99.90
20481;DHT22;10399;50.754;3.366;2022-11-15T00:28:27;12.10;99.90
20481;DHT22;10399;50.754;3.366;2022-11-15T00:31:00;12.20;99.90
20481;DHT22;10399;50.754;3.366;2022-11-15T00:33:28;12.30;99.90
20481;DHT22;10399;50.754;3.366;2022-11-15T00:36:07;12.30;99.90
20481;DHT22;10399;50.754;3.366;2022-11-15T00:38:37;12.40;99.90
20481;DHT22;10399;50.754;3.366;2022-11-15T00:41:06;12.30;99.90
20481;DHT22;10399;50.754;3.366;2022-11-15T00:43:35;12.30;99.90
20481;DHT22;10399;50.754;3.366;2022-11-15T00:46:02;12.20;99.90
20481;DHT22;10399;50.754;3.366;2022-11-15T00:48:29;12.30;99.90
20481;DHT22;10399;50.754;3.366;2022-11-15T00:50:58;12.30;99.90
20481;DHT22;10399;50.754;3.366;2022-11-15T00:53:25;12.30;99.90
20481;DHT22;10399;50.754;3.366;2022-11-15T00:55:53;12.40;99.90
20481;DHT22;10399;50.754;3.366;2022-11-15T00:58:20;12.30;99.90
20481;DHT22;10399;50.754;3.366;2022-11-15T01:00:47;12.40;99.90
20481;DHT22;10399;50.754;3.366;2022-11-15T01:03:14;12.30;99.90
20481;DHT22;10399;50.754;3.366;2022-11-15T01:05:41;12.30;99.90
20481;DHT22;10399;50.754;3.366;2022-11-15T01:08:15;12.30;99.90
20481;DHT22;10399;50.754;3.366;2022-11-15T01:10:42;12.40;99.90
20481;DHT22;10399;50.754;3.366;2022-11-15T01:13:09;12.30;99.90
20481;DHT22;10399;50.754;3.366;2022-11-15T01:15:40;12.40;99.90
20481;DHT22;10399;50.754;3.366;2022-11-15T01:18:07;12.30;99.90
20481;DHT22;10399;50.754;3.366;2022-11-15T01:20:38;12.30;99.90
20481;DHT22;10399;50.754;3.366;2022-11-15T01:23:05;12.40;99.90
20481;DHT22;10399;50.754;3.366;2022-11-15T01:25:32;12.30;99.90
20481;DHT22;10399;50.754;3.366;2022-11-15T01:27:59;12.20;99.90
20481;DHT22;10399;50.754;3.366;2022-11-15T01:30:26;12.30;99.90
20481;DHT22;10399;50.754;3.366;2022-11-15T01:32:53;12.40;99.90
20481;DHT22;10399;50.754;3.366;2022-11-15T01:35:20;12.30;99.90
20481;DHT22;10399;50.754;3.366;2022-11-15T01:37:47;12.40;99.90
20481;DHT22;10399;50.754;3.366;2022-11-15T01:40:14;12.30;99.90
20481;DHT22;10399;50.754;3.366;2022-11-15T01:42:41;12.10;99.90
20481;DHT22;10399;50.754;3.366;2022-11-15T01:45:14;12.00;99.90
20481;DHT22;10399;50.754;3.366;2022-11-15T01:47:46;12.00;99.90
20481;DHT22;10399;50.754;3.366;2022-11-15T01:50:18;12.10;99.90
20481;DHT22;10399;50.754;3.366;2022-11-15T01:52:47;12.20;99.90
20481;DHT22;10399;50.754;3.366;2022-11-15T01:55:23;12.20;99.90
20481;DHT22;10399;50.754;3.366;2022-11-15T01:57:55;12.10;99.90
20481;DHT22;10399;50.754;3.366;2022-11-15T02:00:23;12.20;99.90
20481;DHT22;10399;50.754;3.366;2022-11-15T02:02:51;12.10;99.90
20481;DHT22;10399;50.754;3.366;2022-11-15T02:05:18;11.90;99.90
20481;DHT22;10399;50.754;3.366;2022-11-15T02:07:45;12.00;99.90
20481;DHT22;10399;50.754;3.366;2022-11-15T02:10:21;12.00;99.90
20481;DHT22;10399;50.754;3.366;2022-11-15T02:12:49;12.00;99.90
20481;DHT22;10399;50.754;3.366;2022-11-15T02:15:16;12.10;99.90
20481;DHT22;10399;50.754;3.366;2022-11-15T02:17:56;12.00;99.90
20481;DHT22;10399;50.754;3.366;2022-11-15T02:29:10;12.00;99.90
20481;DHT22;10399;50.754;3.366;2022-11-15T02:32:00;11.80;99.90
20481;DHT22;10399;50.754;3.366;2022-11-15T02:40:12;11.60;99.90
20481;DHT22;10399;50.754;3.366;2022-11-15T02:42:45;11.60;99.90
20481;DHT22;10399;50.754;3.366;2022-11-15T02:45:39;11.50;99.90
20481;DHT22;10399;50.754;3.366;2022-11-15T02:48:10;11.50;99.90
20481;DHT22;10399;50.754;3.366;2022-11-15T02:50:38;11.30;99.90
20481;DHT22;10399;50.754;3.366;2022-11-15T02:53:07;11.30;99.90
20481;DHT22;10399;50.754;3.366;2022-11-15T03:00:52;11.50;99.90
20481;DHT22;10399;50.754;3.366;2022-11-15T03:11:46;11.30;99.90
20481;DHT22;10399;50.754;3.366;2022-11-15T03:14:37;11.30;99.90
20481;DHT22;10399;50.754;3.366;2022-11-15T03:17:26;11.30;99.90
20481;DHT22;10399;50.754;3.366;2022-11-15T03:20:01;11.30;99.90
20481;DHT22;10399;50.754;3.366;2022-11-15T03:22:33;11.20;99.90
20481;DHT22;10399;50.754;3.366;2022-11-15T03:25:05;11.10;99.90
20481;DHT22;10399;50.754;3.366;2022-11-15T03:27:38;11.20;99.90
20481;DHT22;10399;50.754;3.366;2022-11-15T03:30:08;11.10;99.90
20481;DHT22;10399;50.754;3.366;2022-11-15T03:32:43;11.30;99.90
20481;DHT22;10399;50.754;3.366;2022-11-15T03:35:18;11.10;99.90
20481;DHT22;10399;50.754;3.366;2022-11-15T03:38:14;11.10;99.90
20481;DHT22;10399;50.754;3.366;2022-11-15T03:41:06;11.00;99.90
20481;DHT22;10399;50.754;3.366;2022-11-15T03:49:10;10.90;99.90
20481;DHT22;10399;50.754;3.366;2022-11-15T03:51:42;10.80;99.90
20481;DHT22;10399;50.754;3.366;2022-11-15T03:54:12;10.90;99.90
20481;DHT22;10399;50.754;3.366;2022-11-15T03:56:39;11.00;99.90
20481;DHT22;10399;50.754;3.366;2022-11-15T03:59:06;10.80;99.90
20481;DHT22;10399;50.754;3.366;2022-11-15T04:01:39;10.90;99.90
20481;DHT22;10399;50.754;3.366;2022-11-15T04:04:06;10.90;99.90
20481;DHT22;10399;50.754;3.366;2022-11-15T04:06:38;10.80;99.90
20481;DHT22;10399;50.754;3.366;2022-11-15T04:09:05;10.70;99.90
20481;DHT22;10399;50.754;3.366;2022-11-15T04:11:34;10.70;99.90
20481;DHT22;10399;50.754;3.366;2022-11-15T04:14:01;10.80;99.90
20481;DHT22;10399;50.754;3.366;2022-11-15T04:16:28;10.80;99.90
20481;DHT22;10399;50.754;3.366;2022-11-15T04:18:56;10.90;99.90
20481;DHT22;10399;50.754;3.366;2022-11-15T04:21:41;10.80;99.90
20481;DHT22;10399;50.754;3.366;2022-11-15T04:24:27;10.70;99.90
20481;DHT22;10399;50.754;3.366;2022-11-15T04:26:57;10.60;99.90
20481;DHT22;10399;50.754;3.366;2022-11-15T04:29:28;10.70;99.90
20481;DHT22;10399;50.754;3.366;2022-11-15T04:32:03;10.70;99.90
20481;DHT22;10399;50.754;3.366;2022-11-15T04:34:33;10.60;99.90
20481;DHT22;10399;50.754;3.366;2022-11-15T04:37:03;10.70;99.90
20481;DHT22;10399;50.754;3.366;2022-11-15T04:39:43;10.60;99.90
20481;DHT22;10399;50.754;3.366;2022-11-15T04:42:11;10.60;99.90
20481;DHT22;10399;50.754;3.366;2022-11-15T04:44:41;10.60;99.90
20481;DHT22;10399;50.754;3.366;2022-11-15T04:47:09;10.80;99.90
20481;DHT22;10399;50.754;3.366;2022-11-15T04:49:40;10.60;99.90
20481;DHT22;10399;50.754;3.366;2022-11-15T04:52:14;10.50;99.90
20481;DHT22;10399;50.754;3.366;2022-11-15T04:54:46;10.50;99.90
20481;DHT22;10399;50.754;3.366;2022-11-15T04:57:14;10.70;99.90
20481;DHT22;10399;50.754;3.366;2022-11-15T04:59:42;10.60;99.90
20481;DHT22;10399;50.754;3.366;2022-11-15T05:02:09;10.60;99.90
20481;DHT22;10399;50.754;3.366;2022-11-15T05:04:37;10.50;99.90
20481;DHT22;10399;50.754;3.366;2022-11-15T05:07:04;10.40;99.90
20481;DHT22;10399;50.754;3.366;2022-11-15T05:09:31;10.50;99.90
20481;DHT22;10399;50.754;3.366;2022-11-15T05:11:58;10.40;99.90
20481;DHT22;10399;50.754;3.366;2022-11-15T05:14:25;10.40;99.90
20481;DHT22;10399;50.754;3.366;2022-11-15T05:16:52;10.50;99.90
20481;DHT22;10399;50.754;3.366;2022-11-15T05:19:19;10.60;99.90
20481;DHT22;10399;50.754;3.366;2022-11-15T05:21:47;10.60;99.90
20481;DHT22;10399;50.754;3.366;2022-11-15T05:24:14;10.60;99.90
20481;DHT22;10399;50.754;3.366;2022-11-15T05:26:44;10.60;99.90
20481;DHT22;10399;50.754;3.366;2022-11-15T05:29:12;10.50;99.90
20481;DHT22;10399;50.754;3.366;2022-11-15T05:31:41;10.30;99.90
20481;DHT22;10399;50.754;3.366;2022-11-15T05:34:09;10.40;99.90
20481;DHT22;10399;50.754;3.366;2022-11-15T05:36:44;10.30;99.90
20481;DHT22;10399;50.754;3.366;2022-11-15T05:39:14;10.30;99.90
20481;DHT22;10399;50.754;3.366;2022-11-15T05:41:45;10.20;99.90
20481;DHT22;10399;50.754;3.366;2022-11-15T05:44:15;10.20;99.90
20481;DHT22;10399;50.754;3.366;2022-11-15T05:46:45;10.30;99.90
20481;DHT22;10399;50.754;3.366;2022-11-15T05:49:17;10.30;99.90
20481;DHT22;10399;50.754;3.366;2022-11-15T05:51:50;10.30;99.90
20481;DHT22;10399;50.754;3.366;2022-11-15T05:54:19;10.30;99.90
20481;DHT22;10399;50.754;3.366;2022-11-15T05:56:47;10.50;99.90
20481;DHT22;10399;50.754;3.366;2022-11-15T05:59:14;10.40;99.90
20481;DHT22;10399;50.754;3.366;2022-11-15T06:01:42;10.50;99.90
20481;DHT22;10399;50.754;3.366;2022-11-15T06:04:09;10.20;99.90
20481;DHT22;10399;50.754;3.366;2022-11-15T06:06:37;10.30;99.90
20481;DHT22;10399;50.754;3.366;2022-11-15T06:09:08;10.20;99.90
20481;DHT22;10399;50.754;3.366;2022-11-15T06:11:38;10.10;99.90
20481;DHT22;10399;50.754;3.366;2022-11-15T06:14:05;10.10;99.90
20481;DHT22;10399;50.754;3.366;2022-11-15T06:16:35;10.10;99.90
20481;DHT22;10399;50.754;3.366;2022-11-15T06:19:06;10.30;99.90
20481;DHT22;10399;50.754;3.366;2022-11-15T06:21:34;10.20;99.90
20481;DHT22;10399;50.754;3.366;2022-11-15T06:24:04;10.30;99.90
20481;DHT22;10399;50.754;3.366;2022-11-15T06:26:34;10.40;99.90
20481;DHT22;10399;50.754;3.366;2022-11-15T06:29:05;10.30;99.90
20481;DHT22;10399;50.754;3.366;2022-11-15T06:31:37;10.30;99.90
20481;DHT22;10399;50.754;3.366;2022-11-15T06:34:05;10.30;99.90
20481;DHT22;10399;50.754;3.366;2022-11-15T06:36:36;10.20;99.90
20481;DHT22;10399;50.754;3.366;2022-11-15T06:39:06;10.30;99.90
20481;DHT22;10399;50.754;3.366;2022-11-15T06:41:36;10.30;99.90
20481;DHT22;10399;50.754;3.366;2022-11-15T06:44:11;10.30;99.90
20481;DHT22;10399;50.754;3.366;2022-11-15T06:46:39;10.40;99.90
20481;DHT22;10399;50.754;3.366;2022-11-15T06:49:08;10.40;99.90
20481;DHT22;10399;50.754;3.366;2022-11-15T06:51:44;10.30;99.90
20481;DHT22;10399;50.754;3.366;2022-11-15T06:54:12;10.20;99.90
20481;DHT22;10399;50.754;3.366;2022-11-15T06:56:42;10.40;99.90
20481;DHT22;10399;50.754;3.366;2022-11-15T06:59:09;10.40;99.90
20481;DHT22;10399;50.754;3.366;2022-11-15T07:01:36;10.40;99.90
20481;DHT22;10399;50.754;3.366;2022-11-15T07:04:03;10.30;99.90
20481;DHT22;10399;50.754;3.366;2022-11-15T07:06:31;10.40;99.90
20481;DHT22;10399;50.754;3.366;2022-11-15T07:08:58;10.30;99.90
20481;DHT22;10399;50.754;3.366;2022-11-15T07:11:25;10.40;99.90
20481;DHT22;10399;50.754;3.366;2022-11-15T07:13:53;10.20;99.90
20481;DHT22;10399;50.754;3.366;2022-11-15T07:16:20;10.20;99.90
20481;DHT22;10399;50.754;3.366;2022-11-15T07:18:46;10.40;99.90
20481;DHT22;10399;50.754;3.366;2022-11-15T07:21:13;10.30;99.90
20481;DHT22;10399;50.754;3.366;2022-11-15T07:23:40;10.30;99.90
20481;DHT22;10399;50.754;3.366;2022-11-15T07:26:08;10.30;99.90
20481;DHT22;10399;50.754;3.366;2022-11-15T07:28:35;10.40;99.90
20481;DHT22;10399;50.754;3.366;2022-11-15T07:31:04;10.40;99.90
20481;DHT22;10399;50.754;3.366;2022-11-15T07:33:32;10.40;99.90
20481;DHT22;10399;50.754;3.366;2022-11-15T07:36:03;10.40;99.90
20481;DHT22;10399;50.754;3.366;2022-11-15T07:38:31;10.50;99.90
20481;DHT22;10399;50.754;3.366;2022-11-15T07:41:05;10.40;99.90
20481;DHT22;10399;50.754;3.366;2022-11-15T07:43:33;10.40;99.90
20481;DHT22;10399;50.754;3.366;2022-11-15T07:46:05;10.50;99.90
20481;DHT22;10399;50.754;3.366;2022-11-15T07:48:32;10.40;99.90
20481;DHT22;10399;50.754;3.366;2022-11-15T07:51:14;10.40;99.90
20481;DHT22;10399;50.754;3.366;2022-11-15T07:53:43;10.50;99.90
20481;DHT22;10399;50.754;3.366;2022-11-15T07:56:10;10.50;99.90
20481;DHT22;10399;50.754;3.366;2022-11-15T07:58:37;10.50;99.90
20481;DHT22;10399;50.754;3.366;2022-11-15T08:01:06;10.60;99.90
20481;DHT22;10399;50.754;3.366;2022-11-15T08:03:34;10.50;99.90
20481;DHT22;10399;50.754;3.366;2022-11-15T08:06:01;10.70;99.90
20481;DHT22;10399;50.754;3.366;2022-11-15T08:08:28;10.70;99.90
20481;DHT22;10399;50.754;3.366;2022-11-15T08:10:57;10.50;99.90
20481;DHT22;10399;50.754;3.366;2022-11-15T08:13:25;10.50;99.90
20481;DHT22;10399;50.754;3.366;2022-11-15T08:15:52;10.60;99.90
20481;DHT22;10399;50.754;3.366;2022-11-15T08:18:23;10.50;99.90
20481;DHT22;10399;50.754;3.366;2022-11-15T08:20:50;10.60;99.90
20481;DHT22;10399;50.754;3.366;2022-11-15T08:23:18;10.60;99.90
20481;DHT22;10399;50.754;3.366;2022-11-15T08:25:45;10.70;99.90
20481;DHT22;10399;50.754;3.366;2022-11-15T08:28:12;10.80;99.90
20481;DHT22;10399;50.754;3.366;2022-11-15T08:30:41;10.80;99.90
20481;DHT22;10399;50.754;3.366;2022-11-15T08:33:13;10.70;99.90
20481;DHT22;10399;50.754;3.366;2022-11-15T08:35:41;10.80;99.90
20481;DHT22;10399;50.754;3.366;2022-11-15T08:38:09;10.90;99.90
20481;DHT22;10399;50.754;3.366;2022-11-15T08:40:37;10.90;99.90
20481;DHT22;10399;50.754;3.366;2022-11-15T08:43:04;11.00;99.90
20481;DHT22;10399;50.754;3.366;2022-11-15T08:45:33;11.20;99.90
20481;DHT22;10399;50.754;3.366;2022-11-15T08:48:02;11.20;99.90
20481;DHT22;10399;50.754;3.366;2022-11-15T08:50:29;11.20;99.90
20481;DHT22;10399;50.754;3.366;2022-11-15T08:52:57;11.30;99.90
20481;DHT22;10399;50.754;3.366;2022-11-15T08:55:24;11.30;99.90
20481;DHT22;10399;50.754;3.366;2022-11-15T08:57:51;11.40;99.90
20481;DHT22;10399;50.754;3.366;2022-11-15T09:00:18;11.40;99.90
20481;DHT22;10399;50.754;3.366;2022-11-15T09:02:46;11.50;99.90
20481;DHT22;10399;50.754;3.366;2022-11-15T09:05:14;11.40;99.90
20481;DHT22;10399;50.754;3.366;2022-11-15T09:07:42;11.50;99.90
20481;DHT22;10399;50.754;3.366;2022-11-15T09:10:10;11.50;99.90
20481;DHT22;10399;50.754;3.366;2022-11-15T09:12:37;11.60;99.90
20481;DHT22;10399;50.754;3.366;2022-11-15T09:15:05;11.70;99.90
20481;DHT22;10399;50.754;3.366;2022-11-15T09:17:32;11.70;99.90
20481;DHT22;10399;50.754;3.366;2022-11-15T09:19:59;11.70;99.90
20481;DHT22;10399;50.754;3.366;2022-11-15T09:22:25;11.80;99.90
20481;DHT22;10399;50.754;3.366;2022-11-15T09:24:53;12.00;99.90
20481;DHT22;10399;50.754;3.366;2022-11-15T09:27:20;12.00;99.90
20481;DHT22;10399;50.754;3.366;2022-11-15T09:29:46;12.00;99.90
20481;DHT22;10399;50.754;3.366;2022-11-15T09:32:13;12.00;99.90
20481;DHT22;10399;50.754;3.366;2022-11-15T09:34:40;12.00;99.90
20481;DHT22;10399;50.754;3.366;2022-11-15T09:37:07;12.10;99.90
20481;DHT22;10399;50.754;3.366;2022-11-15T09:39:34;12.00;99.90
20481;DHT22;10399;50.754;3.366;2022-11-15T09:42:22;12.10;99.90
20481;DHT22;10399;50.754;3.366;2022-11-15T09:49:54;12.20;99.90
20481;DHT22;10399;50.754;3.366;2022-11-15T09:52:23;12.30;99.90
20481;DHT22;10399;50.754;3.366;2022-11-15T09:54:52;12.60;99.90
20481;DHT22;10399;50.754;3.366;2022-11-15T09:57:41;12.70;99.90
20481;DHT22;10399;50.754;3.366;2022-11-15T10:00:35;12.80;99.90
20481;DHT22;10399;50.754;3.366;2022-11-15T10:03:25;13.00;99.90
20481;DHT22;10399;50.754;3.366;2022-11-15T10:05:56;12.90;99.90
20481;DHT22;10399;50.754;3.366;2022-11-15T10:11:17;12.70;99.90
20481;DHT22;10399;50.754;3.366;2022-11-15T10:14:22;12.80;99.90
20481;DHT22;10399;50.754;3.366;2022-11-15T10:22:46;12.70;99.90
20481;DHT22;10399;50.754;3.366;2022-11-15T10:27:56;12.90;99.90
20481;DHT22;10399;50.754;3.366;2022-11-15T10:30:34;13.10;99.90
20481;DHT22;10399;50.754;3.366;2022-11-15T10:33:26;13.20;99.90
20481;DHT22;10399;50.754;3.366;2022-11-15T10:46:29;13.60;99.90
20481;DHT22;10399;50.754;3.366;2022-11-15T10:51:51;13.60;99.90
20481;DHT22;10399;50.754;3.366;2022-11-15T10:57:20;13.60;99.90
20481;DHT22;10399;50.754;3.366;2022-11-15T11:00:00;13.60;99.90
20481;DHT22;10399;50.754;3.366;2022-11-15T11:02:38;13.60;99.90
20481;DHT22;10399;50.754;3.366;2022-11-15T11:05:37;13.60;99.90
20481;DHT22;10399;50.754;3.366;2022-11-15T11:10:56;13.60;99.90
20481;DHT22;10399;50.754;3.366;2022-11-15T11:13:33;13.60;99.90
20481;DHT22;10399;50.754;3.366;2022-11-15T11:24:28;13.70;99.90
20481;DHT22;10399;50.754;3.366;2022-11-15T11:30:18;13.60;99.90
20481;DHT22;10399;50.754;3.366;2022-11-15T11:33:00;13.50;99.90
20481;DHT22;10399;50.754;3.366;2022-11-15T11:41:44;13.50;99.90
20481;DHT22;10399;50.754;3.366;2022-11-15T11:46:58;13.60;99.90
20481;DHT22;10399;50.754;3.366;2022-11-15T11:52:08;13.50;99.90
20481;DHT22;10399;50.754;3.366;2022-11-15T11:57:47;13.30;99.90
20481;DHT22;10399;50.754;3.366;2022-11-15T12:00:23;13.30;99.90
20481;DHT22;10399;50.754;3.366;2022-11-15T12:03:05;13.40;99.90
20481;DHT22;10399;50.754;3.366;2022-11-15T12:05:44;13.40;99.90
20481;DHT22;10399;50.754;3.366;2022-11-15T12:14:11;13.50;99.90
20481;DHT22;10399;50.754;3.366;2022-11-15T12:16:41;13.50;99.90
20481;DHT22;10399;50.754;3.366;2022-11-15T12:19:08;13.60;99.90
20481;DHT22;10399;50.754;3.366;2022-11-15T12:27:07;13.50;99.90
20481;DHT22;10399;50.754;3.366;2022-11-15T12:29:46;13.50;99.90
20481;DHT22;10399;50.754;3.366;2022-11-15T12:32:31;13.50;99.90
20481;DHT22;10399;50.754;3.366;2022-11-15T12:35:01;13.50;99.90
20481;DHT22;10399;50.754;3.366;2022-11-15T12:40:16;13.40;99.90
20481;DHT22;10399;50.754;3.366;2022-11-15T12:45:34;13.60;99.90
20481;DHT22;10399;50.754;3.366;2022-11-15T12:50:56;13.40;99.90
20481;DHT22;10399;50.754;3.366;2022-11-15T12:58:57;13.40;99.90
20481;DHT22;10399;50.754;3.366;2022-11-15T13:22:47;13.10;99.90
20481;DHT22;10399;50.754;3.366;2022-11-15T13:30:37;12.90;99.90
20481;DHT22;10399;50.754;3.366;2022-11-15T13:33:19;13.00;99.90
20481;DHT22;10399;50.754;3.366;2022-11-15T13:35:49;13.10;99.90
20481;DHT22;10399;50.754;3.366;2022-11-15T13:38:32;13.10;99.90
20481;DHT22;10399;50.754;3.366;2022-11-15T13:41:18;12.90;99.90
20481;DHT22;10399;50.754;3.366;2022-11-15T13:43:45;12.80;99.90
20481;DHT22;10399;50.754;3.366;2022-11-15T13:46:19;12.90;99.90
20481;DHT22;10399;50.754;3.366;2022-11-15T13:48:55;12.90;99.90
20481;DHT22;10399;50.754;3.366;2022-11-15T13:51:51;12.80;99.90
20481;DHT22;10399;50.754;3.366;2022-11-15T13:54:43;12.80;99.90
20481;DHT22;10399;50.754;3.366;2022-11-15T13:57:21;12.70;99.90
20481;DHT22;10399;50.754;3.366;2022-11-15T14:00:00;12.60;99.90
20481;DHT22;10399;50.754;3.366;2022-11-15T14:02:33;12.60;99.90
20481;DHT22;10399;50.754;3.366;2022-11-15T14:05:02;12.70;99.90
20481;DHT22;10399;50.754;3.366;2022-11-15T14:07:32;12.50;99.90
20481;DHT22;10399;50.754;3.366;2022-11-15T14:10:28;12.50;99.90
20481;DHT22;10399;50.754;3.366;2022-11-15T14:12:57;12.50;99.90
20481;DHT22;10399;50.754;3.366;2022-11-15T14:15:33;12.50;99.90
20481;DHT22;10399;50.754;3.366;2022-11-15T14:18:01;12.50;99.90
20481;DHT22;10399;50.754;3.366;2022-11-15T14:20:32;12.50;99.90
20481;DHT22;10399;50.754;3.366;2022-11-15T14:23:04;12.50;99.90
20481;DHT22;10399;50.754;3.366;2022-11-15T14:25:34;12.40;99.90
20481;DHT22;10399;50.754;3.366;2022-11-15T14:28:29;12.40;99.90
20481;DHT22;10399;50.754;3.366;2022-11-15T14:30:59;12.40;99.90
20481;DHT22;10399;50.754;3.366;2022-11-15T14:33:36;12.40;99.90
20481;DHT22;10399;50.754;3.366;2022-11-15T14:36:15;12.30;99.90
20481;DHT22;10399;50.754;3.366;2022-11-15T14:38:43;12.40;99.90
20481;DHT22;10399;50.754;3.366;2022-11-15T14:41:23;12.40;99.90
20481;DHT22;10399;50.754;3.366;2022-11-15T14:43:51;12.30;99.90
20481;DHT22;10399;50.754;3.366;2022-11-15T14:46:19;12.30;99.90
20481;DHT22;10399;50.754;3.366;2022-11-15T14:48:46;12.30;99.90
20481;DHT22;10399;50.754;3.366;2022-11-15T14:51:15;12.40;99.90
20481;DHT22;10399;50.754;3.366;2022-11-15T14:53:44;12.40;99.90
20481;DHT22;10399;50.754;3.366;2022-11-15T14:56:11;12.50;99.90
20481;DHT22;10399;50.754;3.366;2022-11-15T14:58:38;12.40;99.90
20481;DHT22;10399;50.754;3.366;2022-11-15T15:01:22;12.40;99.90
20481;DHT22;10399;50.754;3.366;2022-11-15T15:03:51;12.50;99.90
20481;DHT22;10399;50.754;3.366;2022-11-15T15:06:18;12.60;99.90
20481;DHT22;10399;50.754;3.366;2022-11-15T15:08:46;12.50;99.90
20481;DHT22;10399;50.754;3.366;2022-11-15T15:11:23;12.50;99.90
20481;DHT22;10399;50.754;3.366;2022-11-15T15:13:51;12.50;99.90
20481;DHT22;10399;50.754;3.366;2022-11-15T15:16:19;12.50;99.90
20481;DHT22;10399;50.754;3.366;2022-11-15T15:18:46;12.50;99.90
20481;DHT22;10399;50.754;3.366;2022-11-15T15:21:23;12.50;99.90
20481;DHT22;10399;50.754;3.366;2022-11-15T15:23:51;12.60;99.90
20481;DHT22;10399;50.754;3.366;2022-11-15T15:26:21;12.60;99.90
20481;DHT22;10399;50.754;3.366;2022-11-15T15:28:48;12.70;99.90
20481;DHT22;10399;50.754;3.366;2022-11-15T15:31:18;12.60;99.90
20481;DHT22;10399;50.754;3.366;2022-11-15T15:33:46;12.70;99.90
20481;DHT22;10399;50.754;3.366;2022-11-15T15:36:14;12.70;99.90
20481;DHT22;10399;50.754;3.366;2022-11-15T15:38:44;12.70;99.90
20481;DHT22;10399;50.754;3.366;2022-11-15T15:41:16;12.70;99.90
20481;DHT22;10399;50.754;3.366;2022-11-15T15:43:43;12.60;99.90
20481;DHT22;10399;50.754;3.366;2022-11-15T15:46:15;12.70;99.90
20481;DHT22;10399;50.754;3.366;2022-11-15T15:48:43;12.60;99.90
20481;DHT22;10399;50.754;3.366;2022-11-15T15:51:11;12.70;99.90
20481;DHT22;10399;50.754;3.366;2022-11-15T15:53:45;12.70;99.90
20481;DHT22;10399;50.754;3.366;2022-11-15T15:56:12;12.60;99.90
20481;DHT22;10399;50.754;3.366;2022-11-15T15:58:40;12.80;99.90
20481;DHT22;10399;50.754;3.366;2022-11-15T16:01:07;12.70;99.90
20481;DHT22;10399;50.754;3.366;2022-11-15T16:03:34;12.80;99.90
20481;DHT22;10399;50.754;3.366;2022-11-15T16:06:01;12.80;99.90
20481;DHT22;10399;50.754;3.366;2022-11-15T16:08:31;12.80;99.90
20481;DHT22;10399;50.754;3.366;2022-11-15T16:11:18;12.90;99.90
20481;DHT22;10399;50.754;3.366;2022-11-15T16:13:45;12.70;99.90
20481;DHT22;10399;50.754;3.366;2022-11-15T16:16:13;12.80;99.90
20481;DHT22;10399;50.754;3.366;2022-11-15T16:18:41;12.80;99.90
20481;DHT22;10399;50.754;3.366;2022-11-15T16:21:08;12.80;99.90
20481;DHT22;10399;50.754;3.366;2022-11-15T16:23:35;12.90;99.90
20481;DHT22;10399;50.754;3.366;2022-11-15T16:26:28;12.90;99.90
20481;DHT22;10399;50.754;3.366;2022-11-15T16:28:54;13.00;99.90
20481;DHT22;10399;50.754;3.366;2022-11-15T16:31:21;13.00;99.90
20481;DHT22;10399;50.754;3.366;2022-11-15T16:33:48;13.00;99.90
20481;DHT22;10399;50.754;3.366;2022-11-15T16:36:26;12.90;99.90
20481;DHT22;10399;50.754;3.366;2022-11-15T16:38:57;12.90;99.90
20481;DHT22;10399;50.754;3.366;2022-11-15T16:41:24;12.90;99.90
20481;DHT22;10399;50.754;3.366;2022-11-15T16:43:51;12.90;99.90
20481;DHT22;10399;50.754;3.366;2022-11-15T16:46:23;13.00;99.90
20481;DHT22;10399;50.754;3.366;2022-11-15T16:48:54;12.90;99.90
20481;DHT22;10399;50.754;3.366;2022-11-15T16:51:22;13.00;99.90
20481;DHT22;10399;50.754;3.366;2022-11-15T16:53:50;13.00;99.90
20481;DHT22;10399;50.754;3.366;2022-11-15T16:56:28;12.80;99.90
20481;DHT22;10399;50.754;3.366;2022-11-15T16:58:57;12.90;99.90
20481;DHT22;10399;50.754;3.366;2022-11-15T17:01:36;12.90;99.90
20481;DHT22;10399;50.754;3.366;2022-11-15T17:04:12;12.90;99.90
20481;DHT22;10399;50.754;3.366;2022-11-15T17:06:40;12.90;99.90
20481;DHT22;10399;50.754;3.366;2022-11-15T17:09:13;13.00;99.90
20481;DHT22;10399;50.754;3.366;2022-11-15T17:11:41;13.00;99.90
20481;DHT22;10399;50.754;3.366;2022-11-15T17:14:09;12.80;99.90
20481;DHT22;10399;50.754;3.366;2022-11-15T17:16:36;12.90;99.90
20481;DHT22;10399;50.754;3.366;2022-11-15T17:19:13;12.90;99.90
20481;DHT22;10399;50.754;3.366;2022-11-15T17:21:42;12.90;99.90
20481;DHT22;10399;50.754;3.366;2022-11-15T17:24:09;12.90;99.90
20481;DHT22;10399;50.754;3.366;2022-11-15T17:26:37;12.90;99.90
20481;DHT22;10399;50.754;3.366;2022-11-15T17:29:07;13.00;99.90
20481;DHT22;10399;50.754;3.366;2022-11-15T17:31:35;13.00;99.90
20481;DHT22;10399;50.754;3.366;2022-11-15T17:34:03;13.00;99.90
20481;DHT22;10399;50.754;3.366;2022-11-15T17:36:31;13.00;99.90
20481;DHT22;10399;50.754;3.366;2022-11-15T17:38:58;13.10;99.90
20481;DHT22;10399;50.754;3.366;2022-11-15T17:41:27;13.20;99.90
20481;DHT22;10399;50.754;3.366;2022-11-15T17:43:58;13.20;99.90
20481;DHT22;10399;50.754;3.366;2022-11-15T17:46:26;13.30;99.90
20481;DHT22;10399;50.754;3.366;2022-11-15T17:48:54;13.30;99.90
20481;DHT22;10399;50.754;3.366;2022-11-15T17:51:23;13.20;99.90
20481;DHT22;10399;50.754;3.366;2022-11-15T17:53:51;13.40;99.90
20481;DHT22;10399;50.754;3.366;2022-11-15T17:56:20;13.40;99.90
20481;DHT22;10399;50.754;3.366;2022-11-15T17:58:49;13.40;99.90
20481;DHT22;10399;50.754;3.366;2022-11-15T18:01:24;13.50;99.90
20481;DHT22;10399;50.754;3.366;2022-11-15T18:03:53;13.50;99.90
20481;DHT22;10399;50.754;3.366;2022-11-15T18:06:21;13.50;99.90
20481;DHT22;10399;50.754;3.366;2022-11-15T18:08:50;13.50;99.90
20481;DHT22;10399;50.754;3.366;2022-11-15T18:11:20;13.50;99.90
20481;DHT22;10399;50.754;3.366;2022-11-15T18:13:51;13.50;99.90
20481;DHT22;10399;50.754;3.366;2022-11-15T18:16:21;13.50;99.90
20481;DHT22;10399;50.754;3.366;2022-11-15T18:18:51;13.50;99.90
20481;DHT22;10399;50.754;3.366;2022-11-15T18:21:20;13.60;99.90